OPDR Canarias — ECKY — position and weather

sailwx.info

Track history (hours):
 
Tides and Currents Weather Stations Pressure Air Temp Water Temp Dewpoint Dewpoint Depression Visibility Wind Speed Wind Dir Waves Ship Positions

OPDR Canarias

Last reported at 2018-Jan-21 06:17 UTC. Time now 2018-Jan-24 04:02 UTC.
Position N 30°49' W 012°42'.

Length 145 m; draft 5.4 m.

Type: Ship (hazmat cat A). MMSI: 225315000.

Date/timePositionNaut miles runAvg speedWind from/ knotsBaromVisibWave heightAir tempDewpointWater temp
2018-Jan-21 06:17N 30°49' W 012°42'413.7
2018-Jan-21 05:58N 30°46' W 012°45'4613.6
2018-Jan-21 02:37N 30°12' W 013°20'313.9
2018-Jan-21 02:26N 30°10' W 013°22'1013.6
2018-Jan-21 01:41N 30°02' W 013°30'413.7
2018-Jan-21 01:23N 29°59' W 013°33'11013.1
2018-Jan-20 17:01N 28°36' W 014°55'113.2
2018-Jan-20 16:58N 28°36' W 014°56'612.8
2018-Jan-20 16:31N 28°32' W 015°00'612.8
2018-Jan-20 16:01N 28°27' W 015°05'612.9
2018-Jan-20 15:31N 28°22' W 015°10'712.9
2018-Jan-20 15:00N 28°17' W 015°15'713.0
2018-Jan-20 14:30N 28°12' W 015°20'612.7
2018-Jan-20 14:00N 28°07' W 015°24'2 3.5
2018-Jan-20 13:28N 28°09' W 015°25'0 0.0
2018-Jan-20 12:58N 28°09' W 015°25'0 0.0
2018-Jan-20 12:28N 28°09' W 015°25'0 0.0
2018-Jan-20 11:58N 28°09' W 015°25'0 0.0
2018-Jan-20 11:28N 28°09' W 015°25'0 0.0
2018-Jan-20 10:58N 28°09' W 015°25'0 0.0
2018-Jan-20 10:28N 28°09' W 015°25'0 0.0
2018-Jan-20 09:49N 28°09' W 015°25'0 0.0
2018-Jan-20 09:19N 28°09' W 015°25'0 0.0
2018-Jan-20 08:49N 28°09' W 015°25'0 0.0
2018-Jan-20 08:22N 28°09' W 015°25'0 0.0
2018-Jan-20 07:52N 28°09' W 015°25'0 0.0
2018-Jan-20 07:22N 28°09' W 015°25'0 0.0
2018-Jan-20 06:52N 28°09' W 015°25'0 0.0
2018-Jan-20 06:22N 28°09' W 015°25'0 0.0
2018-Jan-20 05:52N 28°09' W 015°25'0 0.0
2018-Jan-20 05:25N 28°09' W 015°25'0 0.0
2018-Jan-20 04:55N 28°09' W 015°25'0 0.0
2018-Jan-20 04:25N 28°09' W 015°25'0 0.0
2018-Jan-20 03:55N 28°09' W 015°25'0 0.0
2018-Jan-20 03:25N 28°09' W 015°25'0 0.0
2018-Jan-20 02:55N 28°09' W 015°25'0 0.0
2018-Jan-20 02:28N 28°09' W 015°25'0 0.0
2018-Jan-20 01:58N 28°09' W 015°25'0 0.0
2018-Jan-20 01:28N 28°09' W 015°25'0 0.0
2018-Jan-20 00:58N 28°09' W 015°25'0 0.0
2018-Jan-20 00:28N 28°09' W 015°25'0 0.0
2018-Jan-19 23:58N 28°09' W 015°25'0 0.0
2018-Jan-19 23:25N 28°09' W 015°25'0 0.0
2018-Jan-19 22:58N 28°09' W 015°25'0 0.0
2018-Jan-19 22:28N 28°09' W 015°25'0 0.0
2018-Jan-19 22:00N 28°09' W 015°25'2 3.6
2018-Jan-19 21:28N 28°08' W 015°23'4 8.3
2018-Jan-19 21:00N 28°12' W 015°23'714.8
2018-Jan-19 20:30N 28°15' W 015°31'815.0
2018-Jan-19 20:00N 28°17' W 015°39'714.8
2018-Jan-19 19:31N 28°19' W 015°47'714.6
2018-Jan-19 19:00N 28°22' W 015°55'714.7
2018-Jan-19 18:31N 28°24' W 016°02'815.2
2018-Jan-19 18:00N 28°27' W 016°10'4 7.0
2018-Jan-19 17:29N 28°29' W 016°14'0 0.0
2018-Jan-19 16:59N 28°29' W 016°14'0 0.0
2018-Jan-19 16:29N 28°29' W 016°14'0 0.0
2018-Jan-19 15:59N 28°29' W 016°14'0 0.0
2018-Jan-19 15:29N 28°29' W 016°14'0 0.0
2018-Jan-19 14:59N 28°29' W 016°14'0 0.0
2018-Jan-19 14:26N 28°29' W 016°14'0 0.0
2018-Jan-19 13:59N 28°29' W 016°14'0 0.2
2018-Jan-19 13:30N 28°29' W 016°14'0 0.7
2018-Jan-19 12:57N 28°29' W 016°13'0 0.0
2018-Jan-19 12:30N 28°29' W 016°13'0 0.0
2018-Jan-19 12:00N 28°29' W 016°13'0 0.0
2018-Jan-19 11:30N 28°29' W 016°13'0 0.0
2018-Jan-19 11:00N 28°29' W 016°13'0 0.0
2018-Jan-19 10:30N 28°29' W 016°13'0 0.0
2018-Jan-19 10:00N 28°29' W 016°13'0 0.0
2018-Jan-19 09:30N 28°29' W 016°13'0 0.0
2018-Jan-19 09:00N 28°29' W 016°13'0 0.0
2018-Jan-19 08:30N 28°29' W 016°13'0 0.0
2018-Jan-19 08:00N 28°29' W 016°13'0 0.0
2018-Jan-19 07:30N 28°29' W 016°13'0 0.0
2018-Jan-19 07:00N 28°29' W 016°13'0 0.0
2018-Jan-19 06:30N 28°29' W 016°13'0 0.0
2018-Jan-19 06:00N 28°29' W 016°13'0 0.0
2018-Jan-19 05:30N 28°29' W 016°13'0 0.0
2018-Jan-19 05:00N 28°29' W 016°13'0 0.0
2018-Jan-19 04:30N 28°29' W 016°13'0 0.0
2018-Jan-19 04:00N 28°29' W 016°13'0 0.0
2018-Jan-19 03:30N 28°29' W 016°13'0 0.0
2018-Jan-19 03:00N 28°29' W 016°13'0 0.0
2018-Jan-19 02:30N 28°29' W 016°13'0 0.0
2018-Jan-19 02:00N 28°29' W 016°13'0 0.0
2018-Jan-19 01:30N 28°29' W 016°13'0 0.0
2018-Jan-19 01:00N 28°29' W 016°13'0 0.0
2018-Jan-19 00:30N 28°29' W 016°13'0 0.0
2018-Jan-19 00:00N 28°29' W 016°13'0 0.0
2018-Jan-18 23:30N 28°29' W 016°13'0 0.0
2018-Jan-18 23:00N 28°29' W 016°13'0 0.0
2018-Jan-18 22:30N 28°29' W 016°13'0 0.2
2018-Jan-18 22:00N 28°29' W 016°13'2 4.7
2018-Jan-18 21:30N 28°29' W 016°11'815.5
2018-Jan-18 21:00N 28°33' W 016°03'815.2
2018-Jan-18 20:30N 28°38' W 015°57'1614.8
2018-Jan-18 19:26N 28°49' W 015°45'  
2018-Jan-12 14:58N 28°29' W 016°14'0 0.0
2018-Jan-12 14:28N 28°29' W 016°14'0 0.0
2018-Jan-12 13:58N 28°29' W 016°14'0 0.9
2018-Jan-12 13:28N 28°29' W 016°13'0 0.0
2018-Jan-12 12:58N 28°29' W 016°13'0 0.0
2018-Jan-12 12:28N 28°29' W 016°13'0 0.0
2018-Jan-12 11:58N 28°29' W 016°13'0 0.0
2018-Jan-12 11:28N 28°29' W 016°13'0 0.0
2018-Jan-12 10:58N 28°29' W 016°13'0 0.0
2018-Jan-12 10:28N 28°29' W 016°13'0 0.0
2018-Jan-12 09:58N 28°29' W 016°13'0 0.0
2018-Jan-12 09:28N 28°29' W 016°13'0 0.0
2018-Jan-12 08:58N 28°29' W 016°13'0 0.0
2018-Jan-12 08:28N 28°29' W 016°13'0 0.0
2018-Jan-12 07:58N 28°29' W 016°13'0 0.0
2018-Jan-12 07:28N 28°29' W 016°13'0 0.0
2018-Jan-12 06:58N 28°29' W 016°13'0 0.4
2018-Jan-12 06:30N 28°29' W 016°13'2 3.8
2018-Jan-12 06:00N 28°28' W 016°12'611.8
2018-Jan-12 05:30N 28°31' W 016°06'714.5
2018-Jan-12 04:59N 28°36' W 015°59'814.7
2018-Jan-12 04:28N 28°41' W 015°53'1115.0
2018-Jan-12 03:45N 28°49' W 015°45'  
Track history (hours):
 
Tides and Currents Weather Stations Pressure Air Temp Water Temp Dewpoint Dewpoint Depression Visibility Wind Speed Wind Dir Waves Ship Positions

OPDR Canarias

Last reported at 2018-Jan-21 06:17 UTC. Time now 2018-Jan-24 04:02 UTC.
Position N 30°49' W 012°42'.

Length 145 m; draft 5.4 m.

Type: Ship (hazmat cat A). MMSI: 225315000.

Date/timePositionNaut miles runAvg speedWind from/ knotsBaromVisibWave heightAir tempDewpointWater temp
2018-Jan-21 06:17N 30°49' W 012°42'413.7
2018-Jan-21 05:58N 30°46' W 012°45'4613.6
2018-Jan-21 02:37N 30°12' W 013°20'313.9
2018-Jan-21 02:26N 30°10' W 013°22'1013.6
2018-Jan-21 01:41N 30°02' W 013°30'413.7
2018-Jan-21 01:23N 29°59' W 013°33'11013.1
2018-Jan-20 17:01N 28°36' W 014°55'113.2
2018-Jan-20 16:58N 28°36' W 014°56'612.8
2018-Jan-20 16:31N 28°32' W 015°00'612.8
2018-Jan-20 16:01N 28°27' W 015°05'612.9
2018-Jan-20 15:31N 28°22' W 015°10'712.9
2018-Jan-20 15:00N 28°17' W 015°15'713.0
2018-Jan-20 14:30N 28°12' W 015°20'612.7
2018-Jan-20 14:00N 28°07' W 015°24'2 3.5
2018-Jan-20 13:28N 28°09' W 015°25'0 0.0
2018-Jan-20 12:58N 28°09' W 015°25'0 0.0
2018-Jan-20 12:28N 28°09' W 015°25'0 0.0
2018-Jan-20 11:58N 28°09' W 015°25'0 0.0
2018-Jan-20 11:28N 28°09' W 015°25'0 0.0
2018-Jan-20 10:58N 28°09' W 015°25'0 0.0
2018-Jan-20 10:28N 28°09' W 015°25'0 0.0
2018-Jan-20 09:49N 28°09' W 015°25'0 0.0
2018-Jan-20 09:19N 28°09' W 015°25'0 0.0
2018-Jan-20 08:49N 28°09' W 015°25'0 0.0
2018-Jan-20 08:22N 28°09' W 015°25'0 0.0
2018-Jan-20 07:52N 28°09' W 015°25'0 0.0
2018-Jan-20 07:22N 28°09' W 015°25'0 0.0
2018-Jan-20 06:52N 28°09' W 015°25'0 0.0
2018-Jan-20 06:22N 28°09' W 015°25'0 0.0
2018-Jan-20 05:52N 28°09' W 015°25'0 0.0
2018-Jan-20 05:25N 28°09' W 015°25'0 0.0
2018-Jan-20 04:55N 28°09' W 015°25'0 0.0
2018-Jan-20 04:25N 28°09' W 015°25'0 0.0
2018-Jan-20 03:55N 28°09' W 015°25'0 0.0
2018-Jan-20 03:25N 28°09' W 015°25'0 0.0
2018-Jan-20 02:55N 28°09' W 015°25'0 0.0
2018-Jan-20 02:28N 28°09' W 015°25'0 0.0
2018-Jan-20 01:58N 28°09' W 015°25'0 0.0
2018-Jan-20 01:28N 28°09' W 015°25'0 0.0
2018-Jan-20 00:58N 28°09' W 015°25'0 0.0
2018-Jan-20 00:28N 28°09' W 015°25'0 0.0
2018-Jan-19 23:58N 28°09' W 015°25'0 0.0
2018-Jan-19 23:25N 28°09' W 015°25'0 0.0
2018-Jan-19 22:58N 28°09' W 015°25'0 0.0
2018-Jan-19 22:28N 28°09' W 015°25'0 0.0
2018-Jan-19 22:00N 28°09' W 015°25'2 3.6
2018-Jan-19 21:28N 28°08' W 015°23'4 8.3
2018-Jan-19 21:00N 28°12' W 015°23'714.8
2018-Jan-19 20:30N 28°15' W 015°31'815.0
2018-Jan-19 20:00N 28°17' W 015°39'714.8
2018-Jan-19 19:31N 28°19' W 015°47'714.6
2018-Jan-19 19:00N 28°22' W 015°55'714.7
2018-Jan-19 18:31N 28°24' W 016°02'815.2
2018-Jan-19 18:00N 28°27' W 016°10'4 7.0
2018-Jan-19 17:29N 28°29' W 016°14'0 0.0
2018-Jan-19 16:59N 28°29' W 016°14'0 0.0
2018-Jan-19 16:29N 28°29' W 016°14'0 0.0
2018-Jan-19 15:59N 28°29' W 016°14'0 0.0
2018-Jan-19 15:29N 28°29' W 016°14'0 0.0
2018-Jan-19 14:59N 28°29' W 016°14'0 0.0
2018-Jan-19 14:26N 28°29' W 016°14'0 0.0
2018-Jan-19 13:59N 28°29' W 016°14'0 0.2
2018-Jan-19 13:30N 28°29' W 016°14'0 0.7
2018-Jan-19 12:57N 28°29' W 016°13'0 0.0
2018-Jan-19 12:30N 28°29' W 016°13'0 0.0
2018-Jan-19 12:00N 28°29' W 016°13'0 0.0
2018-Jan-19 11:30N 28°29' W 016°13'0 0.0
2018-Jan-19 11:00N 28°29' W 016°13'0 0.0
2018-Jan-19 10:30N 28°29' W 016°13'0 0.0
2018-Jan-19 10:00N 28°29' W 016°13'0 0.0
2018-Jan-19 09:30N 28°29' W 016°13'0 0.0
2018-Jan-19 09:00N 28°29' W 016°13'0 0.0
2018-Jan-19 08:30N 28°29' W 016°13'0 0.0
2018-Jan-19 08:00N 28°29' W 016°13'0 0.0
2018-Jan-19 07:30N 28°29' W 016°13'0 0.0
2018-Jan-19 07:00N 28°29' W 016°13'0 0.0
2018-Jan-19 06:30N 28°29' W 016°13'0 0.0
2018-Jan-19 06:00N 28°29' W 016°13'0 0.0
2018-Jan-19 05:30N 28°29' W 016°13'0 0.0
2018-Jan-19 05:00N 28°29' W 016°13'0 0.0
2018-Jan-19 04:30N 28°29' W 016°13'0 0.0
2018-Jan-19 04:00N 28°29' W 016°13'0 0.0
2018-Jan-19 03:30N 28°29' W 016°13'0 0.0
2018-Jan-19 03:00N 28°29' W 016°13'0 0.0
2018-Jan-19 02:30N 28°29' W 016°13'0 0.0
2018-Jan-19 02:00N 28°29' W 016°13'0 0.0
2018-Jan-19 01:30N 28°29' W 016°13'0 0.0
2018-Jan-19 01:00N 28°29' W 016°13'0 0.0
2018-Jan-19 00:30N 28°29' W 016°13'0 0.0
2018-Jan-19 00:00N 28°29' W 016°13'0 0.0
2018-Jan-18 23:30N 28°29' W 016°13'0 0.0
2018-Jan-18 23:00N 28°29' W 016°13'0 0.0
2018-Jan-18 22:30N 28°29' W 016°13'0 0.2
2018-Jan-18 22:00N 28°29' W 016°13'2 4.7
2018-Jan-18 21:30N 28°29' W 016°11'815.5
2018-Jan-18 21:00N 28°33' W 016°03'815.2
2018-Jan-18 20:30N 28°38' W 015°57'1614.8
2018-Jan-18 19:26N 28°49' W 015°45'  
2018-Jan-12 14:58N 28°29' W 016°14'0 0.0
2018-Jan-12 14:28N 28°29' W 016°14'0 0.0
2018-Jan-12 13:58N 28°29' W 016°14'0 0.9
2018-Jan-12 13:28N 28°29' W 016°13'0 0.0
2018-Jan-12 12:58N 28°29' W 016°13'0 0.0
2018-Jan-12 12:28N 28°29' W 016°13'0 0.0
2018-Jan-12 11:58N 28°29' W 016°13'0 0.0
2018-Jan-12 11:28N 28°29' W 016°13'0 0.0
2018-Jan-12 10:58N 28°29' W 016°13'0 0.0
2018-Jan-12 10:28N 28°29' W 016°13'0 0.0
2018-Jan-12 09:58N 28°29' W 016°13'0 0.0
2018-Jan-12 09:28N 28°29' W 016°13'0 0.0
2018-Jan-12 08:58N 28°29' W 016°13'0 0.0
2018-Jan-12 08:28N 28°29' W 016°13'0 0.0
2018-Jan-12 07:58N 28°29' W 016°13'0 0.0
2018-Jan-12 07:28N 28°29' W 016°13'0 0.0
2018-Jan-12 06:58N 28°29' W 016°13'0 0.4
2018-Jan-12 06:30N 28°29' W 016°13'2 3.8
2018-Jan-12 06:00N 28°28' W 016°12'611.8
2018-Jan-12 05:30N 28°31' W 016°06'714.5
2018-Jan-12 04:59N 28°36' W 015°59'814.7
2018-Jan-12 04:28N 28°41' W 015°53'1115.0
2018-Jan-12 03:45N 28°49' W 015°45'  

Dump ship's entire track history